createdAt,value
2022-09-21T00:01:17.548Z,100.00
2022-09-21T00:03:45.463Z,100.00
2022-09-21T00:06:14.543Z,100.00
2022-09-21T00:08:41.843Z,100.00
2022-09-21T00:11:16.386Z,100.00
2022-09-21T00:13:46.828Z,100.00
2022-09-21T00:16:16.061Z,100.00
2022-09-21T00:18:43.868Z,100.00
2022-09-21T00:21:13.811Z,100.00
2022-09-21T00:23:40.870Z,100.00
2022-09-21T00:26:19.147Z,100.00
2022-09-21T00:28:46.646Z,100.00
2022-09-21T00:31:17.051Z,100.00
2022-09-21T00:33:44.486Z,100.00
2022-09-21T00:36:17.274Z,100.00
2022-09-21T00:38:46.193Z,100.00
2022-09-21T00:41:13.548Z,100.00
2022-09-21T00:43:44.952Z,100.00
2022-09-21T00:46:30.241Z,100.00
2022-09-21T00:48:58.215Z,100.00
2022-09-21T00:51:26.125Z,100.00
2022-09-21T00:53:59.832Z,100.00
2022-09-21T00:56:27.062Z,100.00
2022-09-21T00:58:55.084Z,100.00
2022-09-21T01:01:22.260Z,100.00
2022-09-21T01:03:51.256Z,100.00
2022-09-21T01:06:19.942Z,100.00
2022-09-21T01:08:52.641Z,100.00
2022-09-21T01:11:28.476Z,100.00
2022-09-21T01:14:21.738Z,100.00
2022-09-21T01:16:57.081Z,100.00
2022-09-21T01:19:27.959Z,100.00
2022-09-21T01:22:15.079Z,100.00
2022-09-21T01:24:51.206Z,100.00
2022-09-21T01:27:21.020Z,100.00
2022-09-21T01:30:02.299Z,100.00
2022-09-21T01:32:30.487Z,100.00
2022-09-21T01:35:06.238Z,100.00
2022-09-21T01:37:40.185Z,100.00
2022-09-21T01:40:14.021Z,100.00
2022-09-21T01:42:41.673Z,100.00
2022-09-21T01:45:09.497Z,100.00
2022-09-21T01:47:37.980Z,100.00
2022-09-21T01:50:06.839Z,100.00
2022-09-21T01:52:42.835Z,100.00
2022-09-21T01:55:15.613Z,100.00
2022-09-21T01:57:55.217Z,100.00
2022-09-21T02:00:22.665Z,100.00
2022-09-21T02:03:04.971Z,100.00
2022-09-21T02:05:31.935Z,100.00
2022-09-21T02:07:59.116Z,100.00
2022-09-21T02:10:35.345Z,100.00
2022-09-21T02:13:05.614Z,100.00
2022-09-21T02:15:37.529Z,100.00
2022-09-21T02:18:24.216Z,100.00
2022-09-21T02:20:57.245Z,100.00
2022-09-21T02:23:38.103Z,100.00
2022-09-21T02:26:10.062Z,100.00
2022-09-21T02:28:39.529Z,100.00
2022-09-21T02:31:33.710Z,100.00
2022-09-21T02:34:25.136Z,100.00
2022-09-21T02:37:03.761Z,100.00
2022-09-21T02:39:43.365Z,100.00
2022-09-21T02:42:20.532Z,100.00
2022-09-21T02:44:52.403Z,100.00
2022-09-21T02:47:23.825Z,100.00
2022-09-21T02:49:54.766Z,100.00
2022-09-21T02:52:23.044Z,100.00
2022-09-21T02:54:52.450Z,100.00
2022-09-21T02:57:21.032Z,100.00
2022-09-21T02:59:48.159Z,100.00
2022-09-21T03:02:15.100Z,100.00
2022-09-21T03:04:43.609Z,100.00
2022-09-21T03:07:10.763Z,100.00
2022-09-21T03:09:38.255Z,100.00
2022-09-21T03:12:05.443Z,100.00
2022-09-21T03:14:33.147Z,100.00
2022-09-21T03:17:01.501Z,100.00
2022-09-21T03:19:29.286Z,100.00
2022-09-21T03:21:56.018Z,100.00
2022-09-21T03:24:41.450Z,100.00
2022-09-21T03:27:09.392Z,100.00
2022-09-21T03:29:36.073Z,100.00
2022-09-21T03:32:03.775Z,100.00
2022-09-21T03:34:31.447Z,100.00
2022-09-21T03:36:58.069Z,100.00
2022-09-21T03:39:24.764Z,100.00
2022-09-21T03:41:51.490Z,100.00
2022-09-21T03:44:18.249Z,100.00
2022-09-21T03:46:45.082Z,100.00
2022-09-21T03:49:11.811Z,100.00
2022-09-21T03:51:39.609Z,100.00
2022-09-21T03:54:06.484Z,100.00
2022-09-21T03:56:33.208Z,100.00
2022-09-21T03:58:59.865Z,100.00
2022-09-21T04:01:26.941Z,100.00
2022-09-21T04:03:53.892Z,100.00
2022-09-21T04:06:20.717Z,100.00
2022-09-21T04:08:47.462Z,100.00
2022-09-21T04:11:16.663Z,100.00
2022-09-21T04:13:43.733Z,100.00
2022-09-21T04:16:11.244Z,100.00
2022-09-21T04:18:38.740Z,100.00
2022-09-21T04:21:06.230Z,100.00
2022-09-21T04:23:33.129Z,100.00
2022-09-21T04:25:59.993Z,100.00
2022-09-21T04:28:26.703Z,100.00
2022-09-21T04:30:54.532Z,100.00
2022-09-21T04:33:23.904Z,100.00
2022-09-21T04:35:56.865Z,100.00
2022-09-21T04:38:23.815Z,100.00
2022-09-21T04:40:57.508Z,100.00
2022-09-21T04:43:24.568Z,100.00
2022-09-21T04:45:51.341Z,100.00
2022-09-21T04:48:18.254Z,100.00
2022-09-21T04:50:49.501Z,100.00
2022-09-21T04:53:16.938Z,100.00
2022-09-21T04:55:46.136Z,100.00
2022-09-21T04:58:12.946Z,100.00
2022-09-21T05:00:39.807Z,100.00
2022-09-21T05:03:06.563Z,100.00
2022-09-21T05:05:33.472Z,100.00
2022-09-21T05:08:00.198Z,100.00
2022-09-21T05:10:27.261Z,100.00
2022-09-21T05:12:54.025Z,100.00
2022-09-21T05:15:22.117Z,100.00
2022-09-21T05:17:48.785Z,100.00
2022-09-21T05:20:15.502Z,100.00
2022-09-21T05:22:42.257Z,100.00
2022-09-21T05:25:09.765Z,100.00
2022-09-21T05:27:37.248Z,100.00
2022-09-21T05:30:05.559Z,100.00
2022-09-21T05:33:03.911Z,100.00
2022-09-21T05:35:45.725Z,100.00
2022-09-21T05:38:17.624Z,100.00
2022-09-21T05:40:47.401Z,100.00
2022-09-21T05:43:14.556Z,100.00
2022-09-21T05:45:47.754Z,100.00
2022-09-21T05:48:19.936Z,100.00
2022-09-21T05:51:07.107Z,100.00
2022-09-21T05:53:49.858Z,100.00
2022-09-21T05:56:42.902Z,100.00
2022-09-21T05:59:30.376Z,100.00
2022-09-21T06:02:18.179Z,100.00
2022-09-21T06:04:45.293Z,100.00
2022-09-21T06:07:12.063Z,100.00
2022-09-21T06:09:42.498Z,100.00
2022-09-21T06:12:11.457Z,100.00
2022-09-21T06:14:38.411Z,100.00
2022-09-21T06:17:05.288Z,100.00
2022-09-21T06:19:32.361Z,100.00
2022-09-21T06:21:59.157Z,100.00
2022-09-21T06:24:25.981Z,100.00
2022-09-21T06:26:52.933Z,100.00
2022-09-21T06:29:23.513Z,100.00
2022-09-21T06:31:53.475Z,100.00
2022-09-21T06:34:20.214Z,100.00
2022-09-21T06:36:46.958Z,100.00
2022-09-21T06:39:13.871Z,100.00
2022-09-21T06:41:40.643Z,100.00
2022-09-21T06:44:10.351Z,100.00
2022-09-21T06:46:37.139Z,100.00
2022-09-21T06:49:03.924Z,100.00
2022-09-21T06:51:30.700Z,100.00
2022-09-21T06:53:58.458Z,100.00
2022-09-21T06:56:26.088Z,100.00
2022-09-21T06:58:53.127Z,100.00
2022-09-21T07:01:20.201Z,100.00
2022-09-21T07:03:50.856Z,100.00
2022-09-21T07:06:18.538Z,100.00
2022-09-21T07:11:32.570Z,100.00
2022-09-21T07:13:59.814Z,100.00
2022-09-21T07:16:27.071Z,100.00
2022-09-21T07:18:53.829Z,100.00
2022-09-21T07:21:20.595Z,100.00
2022-09-21T07:23:47.310Z,100.00
2022-09-21T07:26:14.169Z,96.11
2022-09-21T07:28:41.012Z,82.52
2022-09-21T07:31:14.851Z,75.40
2022-09-21T07:33:43.366Z,79.46
2022-09-21T07:36:11.433Z,79.54
2022-09-21T07:38:39.829Z,71.19
2022-09-21T07:41:12.107Z,66.08
2022-09-21T07:43:41.666Z,65.17
2022-09-21T07:46:11.613Z,60.12
2022-09-21T07:48:39.173Z,63.15
2022-09-21T07:51:08.191Z,57.74
2022-09-21T07:53:36.496Z,58.60
2022-09-21T07:56:11.701Z,61.49
2022-09-21T07:58:57.735Z,68.73
2022-09-21T08:01:26.707Z,82.55
2022-09-21T08:03:55.315Z,86.92
2022-09-21T08:06:23.423Z,86.28
2022-09-21T08:08:53.835Z,90.37
2022-09-21T08:11:23.861Z,90.75
2022-09-21T08:13:55.719Z,94.50
2022-09-21T08:16:22.624Z,96.40
2022-09-21T08:18:50.338Z,95.36
2022-09-21T08:21:17.363Z,94.87
2022-09-21T08:23:44.152Z,95.75
2022-09-21T08:26:17.471Z,96.84
2022-09-21T08:28:47.432Z,97.87
2022-09-21T08:31:14.207Z,100.00
2022-09-21T08:33:40.948Z,100.00
2022-09-21T08:36:09.412Z,97.66
2022-09-21T08:38:37.530Z,94.85
2022-09-21T08:41:15.504Z,100.00
2022-09-21T08:43:44.535Z,100.00
2022-09-21T08:46:14.247Z,100.00
2022-09-21T08:48:56.799Z,100.00
2022-09-21T08:51:27.038Z,100.00
2022-09-21T08:53:57.415Z,100.00
2022-09-21T08:56:37.037Z,100.00
2022-09-21T08:59:15.427Z,100.00
2022-09-21T09:01:59.576Z,100.00
2022-09-21T09:05:00.984Z,100.00
2022-09-21T09:07:39.883Z,100.00
2022-09-21T09:10:33.814Z,100.00
2022-09-21T09:13:18.736Z,100.00
2022-09-21T09:15:51.185Z,100.00
2022-09-21T09:18:40.199Z,100.00
2022-09-21T09:21:32.488Z,100.00
2022-09-21T09:24:19.906Z,100.00
2022-09-21T09:26:51.643Z,100.00
2022-09-21T09:29:21.349Z,100.00
2022-09-21T09:31:48.696Z,100.00
2022-09-21T09:34:36.848Z,100.00
2022-09-21T09:37:12.293Z,100.00
2022-09-21T09:39:40.026Z,100.00
2022-09-21T09:42:33.805Z,100.00
2022-09-21T09:45:29.474Z,100.00
2022-09-21T09:48:02.680Z,99.43
2022-09-21T09:50:34.496Z,98.67
2022-09-21T09:53:05.107Z,99.98
2022-09-21T09:55:43.688Z,97.03
2022-09-21T09:58:18.113Z,96.23
2022-09-21T10:00:46.384Z,92.62
2022-09-21T10:03:19.441Z,91.72
2022-09-21T10:05:46.300Z,95.69
2022-09-21T10:08:47.350Z,94.84
2022-09-21T10:11:15.934Z,98.09
2022-09-21T10:13:47.417Z,100.00
2022-09-21T10:16:24.143Z,99.85
2022-09-21T10:18:56.209Z,91.62
2022-09-21T10:21:35.335Z,90.05
2022-09-21T10:24:07.931Z,95.80
2022-09-21T10:26:44.979Z,88.88
2022-09-21T10:29:17.834Z,84.98
2022-09-21T10:31:59.640Z,88.06
2022-09-21T10:34:31.024Z,88.01
2022-09-21T10:37:00.176Z,93.07
2022-09-21T10:39:31.832Z,90.40
2022-09-21T10:42:05.616Z,88.93
2022-09-21T10:44:42.154Z,88.23
2022-09-21T10:47:17.959Z,84.88
2022-09-21T10:49:48.256Z,80.76
2022-09-21T10:52:15.175Z,84.89
2022-09-21T10:54:42.822Z,88.51
2022-09-21T10:57:14.609Z,87.43
2022-09-21T10:59:41.453Z,83.18
2022-09-21T11:02:33.736Z,84.66
2022-09-21T11:05:12.095Z,86.76
2022-09-21T11:07:48.173Z,87.45
2022-09-21T11:10:29.812Z,87.67
2022-09-21T11:13:22.720Z,90.77
2022-09-21T11:16:23.140Z,86.36
2022-09-21T11:19:10.403Z,81.41
2022-09-21T11:22:09.553Z,81.64
2022-09-21T11:24:49.194Z,78.56
2022-09-21T11:27:19.098Z,72.84
2022-09-21T11:30:07.257Z,74.60
2022-09-21T11:32:40.445Z,77.43
2022-09-21T11:35:44.357Z,76.99
2022-09-21T11:38:46.227Z,79.63
2022-09-21T11:41:37.755Z,82.55
2022-09-21T11:44:49.354Z,78.14
2022-09-21T11:47:53.726Z,76.55
2022-09-21T11:50:43.227Z,76.31
2022-09-21T11:53:20.184Z,75.40
2022-09-21T11:56:27.100Z,70.13
2022-09-21T11:59:16.412Z,70.43
2022-09-21T12:01:50.483Z,69.20
2022-09-21T12:04:27.566Z,69.16
2022-09-21T12:07:03.573Z,70.43
2022-09-21T12:09:58.015Z,77.62
2022-09-21T12:12:51.697Z,70.77
2022-09-21T12:16:20.248Z,71.89
2022-09-21T12:18:49.073Z,69.73
2022-09-21T12:21:21.645Z,68.50
2022-09-21T12:23:57.168Z,70.80
2022-09-21T12:26:37.347Z,68.51
2022-09-21T12:29:12.050Z,69.37
2022-09-21T12:31:48.118Z,64.16
2022-09-21T12:34:19.285Z,57.20
2022-09-21T12:36:59.022Z,58.38
2022-09-21T12:39:29.259Z,63.43
2022-09-21T12:42:10.405Z,59.35
2022-09-21T12:45:04.211Z,55.92
2022-09-21T12:47:54.121Z,58.30
2022-09-21T12:50:26.870Z,62.90
2022-09-21T12:52:55.044Z,67.22
2022-09-21T12:55:35.402Z,68.52
2022-09-21T12:58:17.421Z,70.18
2022-09-21T13:01:14.063Z,70.61
2022-09-21T13:03:55.271Z,68.85
2022-09-21T13:07:03.750Z,68.21
2022-09-21T13:09:31.234Z,70.49
2022-09-21T13:12:01.637Z,68.44
2022-09-21T13:14:33.171Z,65.14
2022-09-21T13:17:02.859Z,61.21
2022-09-21T13:19:32.237Z,62.02
2022-09-21T13:22:13.759Z,63.13
2022-09-21T13:24:42.329Z,60.72
2022-09-21T13:27:09.365Z,63.15
2022-09-21T13:29:39.985Z,61.89
2022-09-21T13:32:13.864Z,58.89
2022-09-21T13:34:42.681Z,56.16
2022-09-21T13:37:13.972Z,53.16
2022-09-21T13:39:44.567Z,53.74
2022-09-21T13:42:29.524Z,53.98
2022-09-21T13:44:58.106Z,53.97
2022-09-21T13:47:34.662Z,52.57
2022-09-21T13:50:04.574Z,51.80
2022-09-21T13:52:36.168Z,50.60
2022-09-21T13:55:18.865Z,49.86
2022-09-21T13:57:48.852Z,51.12
2022-09-21T14:00:19.955Z,49.78
2022-09-21T14:02:49.496Z,50.72
2022-09-21T14:05:36.157Z,51.09
2022-09-21T14:08:07.009Z,51.49
2022-09-21T14:10:37.466Z,51.37
2022-09-21T14:13:22.387Z,51.17
2022-09-21T14:15:49.592Z,51.68
2022-09-21T14:18:19.253Z,51.77
2022-09-21T14:21:18.400Z,52.28
2022-09-21T14:24:07.721Z,51.74
2022-09-21T14:26:35.948Z,51.75
2022-09-21T14:29:16.202Z,52.46
2022-09-21T14:31:43.251Z,53.59
2022-09-21T14:34:21.836Z,52.50
2022-09-21T14:36:51.680Z,51.80
2022-09-21T14:39:30.136Z,52.18
2022-09-21T14:41:59.452Z,51.13
2022-09-21T14:44:30.237Z,51.11
2022-09-21T14:47:00.145Z,51.75
2022-09-21T14:50:07.555Z,52.48
2022-09-21T14:52:46.737Z,53.05
2022-09-21T14:55:27.892Z,54.33
2022-09-21T14:58:27.775Z,54.31
2022-09-21T15:00:55.843Z,54.49
2022-09-21T15:03:28.794Z,55.81
2022-09-21T15:06:26.925Z,57.97
2022-09-21T15:09:41.793Z,57.48
2022-09-21T15:12:23.728Z,54.34
2022-09-21T15:15:00.259Z,57.92
2022-09-21T15:17:29.947Z,55.32
2022-09-21T15:20:03.554Z,54.94
2022-09-21T15:22:33.576Z,54.73
2022-09-21T15:25:04.110Z,54.84
2022-09-21T15:27:33.372Z,54.21
2022-09-21T15:30:03.077Z,54.04
2022-09-21T15:32:40.184Z,54.23
2022-09-21T15:35:19.947Z,54.95
2022-09-21T15:37:47.541Z,54.57
2022-09-21T15:40:17.556Z,54.11
2022-09-21T15:43:04.598Z,53.34
2022-09-21T15:45:46.949Z,52.86
2022-09-21T15:48:14.266Z,52.46
2022-09-21T15:50:43.126Z,52.69
2022-09-21T15:53:26.814Z,52.25
2022-09-21T15:55:54.097Z,51.50
2022-09-21T15:58:40.506Z,50.93
2022-09-21T16:01:12.699Z,52.53
2022-09-21T16:03:40.581Z,52.16
2022-09-21T16:06:37.983Z,51.84
2022-09-21T16:09:26.484Z,49.81
2022-09-21T16:11:54.265Z,48.97
2022-09-21T16:14:40.834Z,49.11
2022-09-21T16:17:12.126Z,49.05
2022-09-21T16:20:01.803Z,49.21
2022-09-21T16:22:31.444Z,53.89
2022-09-21T16:25:00.648Z,57.92
2022-09-21T16:27:29.999Z,51.06
2022-09-21T16:29:57.828Z,52.16
2022-09-21T16:32:28.876Z,57.29
2022-09-21T16:35:18.632Z,57.78
2022-09-21T16:37:45.371Z,57.66
2022-09-21T16:40:14.306Z,58.62
2022-09-21T16:42:41.513Z,58.86
2022-09-21T16:45:14.053Z,59.27
2022-09-21T16:47:40.771Z,62.91
2022-09-21T16:50:12.652Z,63.14
2022-09-21T16:52:39.711Z,66.83
2022-09-21T16:55:07.000Z,69.67
2022-09-21T16:57:34.006Z,68.62
2022-09-21T17:00:01.468Z,67.36
2022-09-21T17:02:28.168Z,68.99
2022-09-21T17:04:54.992Z,67.69
2022-09-21T17:07:21.744Z,68.72
2022-09-21T17:09:48.554Z,70.24
2022-09-21T17:12:17.851Z,70.50
2022-09-21T17:14:47.024Z,70.74
2022-09-21T17:17:19.703Z,72.30
2022-09-21T17:19:48.472Z,74.48
2022-09-21T17:22:18.527Z,74.10
2022-09-21T17:24:51.738Z,78.16
2022-09-21T17:27:26.838Z,81.28
2022-09-21T17:29:55.236Z,75.84
2022-09-21T17:32:24.383Z,76.43
2022-09-21T17:35:12.506Z,83.80
2022-09-21T17:37:39.248Z,87.90
2022-09-21T17:40:10.710Z,81.95
2022-09-21T17:42:44.272Z,82.14
2022-09-21T17:45:16.941Z,87.72
2022-09-21T17:47:44.025Z,87.63
2022-09-21T17:50:10.826Z,85.61
2022-09-21T17:52:56.627Z,89.88
2022-09-21T17:55:23.908Z,91.51
2022-09-21T17:58:18.708Z,94.68
2022-09-21T18:00:45.605Z,94.68
2022-09-21T18:03:25.092Z,93.43
2022-09-21T18:05:59.381Z,95.97
2022-09-21T18:08:31.301Z,97.17
2022-09-21T18:11:10.222Z,98.28
2022-09-21T18:13:47.173Z,98.39
2022-09-21T18:16:27.437Z,98.10
2022-09-21T18:19:03.663Z,99.48
2022-09-21T18:21:33.871Z,100.00
2022-09-21T18:24:23.930Z,100.00
2022-09-21T18:26:55.754Z,100.00
2022-09-21T18:29:42.957Z,100.00
2022-09-21T18:32:46.626Z,100.00
2022-09-21T18:35:31.597Z,100.00
2022-09-21T18:38:21.659Z,100.00
2022-09-21T18:41:33.200Z,100.00
2022-09-21T18:44:19.942Z,100.00
2022-09-21T18:47:09.751Z,100.00
2022-09-21T18:50:15.726Z,100.00
2022-09-21T18:53:12.973Z,100.00
2022-09-21T18:55:42.196Z,100.00
2022-09-21T18:58:16.663Z,100.00
2022-09-21T19:00:45.802Z,100.00
2022-09-21T19:03:19.035Z,100.00
2022-09-21T19:06:03.140Z,100.00
2022-09-21T19:08:49.868Z,100.00
2022-09-21T19:11:32.192Z,100.00
2022-09-21T19:14:23.201Z,100.00
2022-09-21T19:17:30.029Z,100.00
2022-09-21T19:20:03.313Z,100.00
2022-09-21T19:22:57.993Z,100.00
2022-09-21T19:25:49.984Z,100.00
2022-09-21T19:28:40.047Z,100.00
2022-09-21T19:31:20.153Z,100.00
2022-09-21T19:33:50.832Z,100.00
2022-09-21T19:36:21.169Z,100.00
2022-09-21T19:38:54.088Z,100.00
2022-09-21T19:41:39.366Z,100.00
2022-09-21T19:44:15.514Z,100.00
2022-09-21T19:46:49.349Z,100.00
2022-09-21T19:49:20.516Z,100.00
2022-09-21T19:51:52.204Z,100.00
2022-09-21T19:54:42.496Z,100.00
2022-09-21T19:57:33.259Z,100.00
2022-09-21T20:00:02.621Z,100.00
2022-09-21T20:02:42.277Z,100.00
2022-09-21T20:05:34.371Z,100.00
2022-09-21T20:08:05.851Z,100.00
2022-09-21T20:11:03.383Z,100.00
2022-09-21T20:13:46.317Z,100.00
2022-09-21T20:16:24.489Z,100.00
2022-09-21T20:19:19.512Z,100.00
2022-09-21T20:21:53.719Z,100.00
2022-09-21T20:24:27.491Z,100.00
2022-09-21T20:26:56.436Z,100.00
2022-09-21T20:29:25.044Z,100.00
2022-09-21T20:31:54.526Z,100.00
2022-09-21T20:34:23.626Z,100.00
2022-09-21T20:36:52.623Z,100.00
2022-09-21T20:39:23.615Z,100.00
2022-09-21T20:41:53.664Z,100.00
2022-09-21T20:44:25.748Z,100.00
2022-09-21T20:46:55.580Z,100.00
2022-09-21T20:49:25.296Z,100.00
2022-09-21T20:51:54.664Z,100.00
2022-09-21T20:54:23.775Z,100.00
2022-09-21T20:56:55.005Z,100.00
2022-09-21T20:59:24.333Z,100.00
2022-09-21T21:01:53.860Z,100.00
2022-09-21T21:04:22.865Z,100.00
2022-09-21T21:06:51.923Z,100.00
2022-09-21T21:09:20.909Z,100.00
2022-09-21T21:11:50.128Z,100.00
2022-09-21T21:14:19.174Z,100.00
2022-09-21T21:16:48.132Z,100.00
2022-09-21T21:19:19.023Z,100.00
2022-09-21T21:21:48.002Z,100.00
2022-09-21T21:24:35.071Z,100.00
2022-09-21T21:27:04.107Z,100.00
2022-09-21T21:29:33.118Z,100.00
2022-09-21T21:32:02.179Z,100.00
2022-09-21T21:34:32.333Z,100.00
2022-09-21T21:37:01.663Z,100.00
2022-09-21T21:39:31.207Z,100.00
2022-09-21T21:42:00.231Z,100.00
2022-09-21T21:44:31.181Z,100.00
2022-09-21T21:47:10.278Z,100.00
2022-09-21T21:49:49.279Z,100.00
2022-09-21T21:52:18.330Z,100.00
2022-09-21T21:54:47.627Z,100.00
2022-09-21T21:57:16.613Z,100.00
2022-09-21T21:59:45.575Z,100.00
2022-09-21T22:02:13.439Z,100.00
2022-09-21T22:04:43.933Z,100.00
2022-09-21T22:07:12.457Z,100.00
2022-09-21T22:09:42.426Z,100.00
2022-09-21T22:12:11.515Z,100.00
2022-09-21T22:14:40.786Z,100.00
2022-09-21T22:17:09.787Z,100.00
2022-09-21T22:19:39.130Z,100.00
2022-09-21T22:22:07.827Z,100.00
2022-09-21T22:24:35.845Z,100.00
2022-09-21T22:27:04.652Z,100.00
2022-09-21T22:29:32.913Z,100.00
2022-09-21T22:32:02.771Z,100.00
2022-09-21T22:34:31.669Z,100.00
2022-09-21T22:37:00.705Z,100.00
2022-09-21T22:39:29.718Z,100.00
2022-09-21T22:41:58.791Z,100.00
2022-09-21T22:44:27.185Z,100.00
2022-09-21T22:46:55.869Z,100.00
2022-09-21T22:49:24.868Z,100.00
2022-09-21T22:51:53.214Z,100.00
2022-09-21T22:54:21.878Z,100.00
2022-09-21T22:56:50.922Z,100.00
2022-09-21T22:59:19.918Z,100.00
2022-09-21T23:01:49.228Z,100.00
2022-09-21T23:04:19.044Z,100.00
2022-09-21T23:06:48.964Z,100.00
2022-09-21T23:09:20.532Z,100.00
2022-09-21T23:11:54.008Z,100.00
2022-09-21T23:14:24.032Z,100.00
2022-09-21T23:16:54.089Z,100.00
2022-09-21T23:19:22.654Z,100.00
2022-09-21T23:21:52.035Z,100.00
2022-09-21T23:24:22.400Z,100.00
2022-09-21T23:26:52.705Z,100.00
2022-09-21T23:29:21.197Z,100.00
2022-09-21T23:31:50.508Z,100.00
2022-09-21T23:34:21.457Z,100.00
2022-09-21T23:36:51.138Z,100.00
2022-09-21T23:39:19.511Z,100.00
2022-09-21T23:41:48.316Z,100.00
2022-09-21T23:44:17.199Z,100.00
2022-09-21T23:46:45.942Z,100.00
2022-09-21T23:49:14.433Z,100.00
2022-09-21T23:51:43.428Z,100.00
2022-09-21T23:54:12.329Z,100.00
2022-09-21T23:56:41.443Z,100.00
2022-09-21T23:59:10.512Z,100.00
